createdAt,value
2018-08-28T00:00:03.629Z,25.45
2018-08-28T00:02:31.989Z,25.57
2018-08-28T00:05:01.633Z,25.52
2018-08-28T00:07:30.443Z,25.47
2018-08-28T00:09:59.013Z,25.55
2018-08-28T00:12:27.677Z,25.37
2018-08-28T00:14:56.271Z,25.47
2018-08-28T00:17:24.773Z,25.48
2018-08-28T00:19:53.485Z,25.35
2018-08-28T00:22:21.925Z,24.99
2018-08-28T00:24:50.391Z,25.02
2018-08-28T00:27:18.789Z,23.87
2018-08-28T00:29:47.226Z,24.92
2018-08-28T00:32:15.623Z,24.31
2018-08-28T00:34:44.080Z,24.86
2018-08-28T00:37:12.496Z,24.53
2018-08-28T00:39:40.902Z,24.49
2018-08-28T00:42:09.273Z,24.25
2018-08-28T00:44:37.734Z,24.67
2018-08-28T00:47:06.222Z,24.15
2018-08-28T00:49:34.642Z,23.66
2018-08-28T00:52:03.007Z,23.93
2018-08-28T00:54:31.459Z,24.35
2018-08-28T00:56:59.935Z,24.53
2018-08-28T00:59:28.821Z,24.59
2018-08-28T01:01:57.254Z,24.57
2018-08-28T01:04:25.645Z,24.41
2018-08-28T01:06:54.050Z,23.94
2018-08-28T01:09:28.848Z,23.42
2018-08-28T01:11:57.214Z,23.88
2018-08-28T01:14:26.626Z,23.60
2018-08-28T01:16:54.970Z,23.14
2018-08-28T01:19:23.403Z,23.10
2018-08-28T01:21:51.783Z,23.00
2018-08-28T01:24:20.387Z,23.39
2018-08-28T01:26:48.784Z,23.55
2018-08-28T01:29:17.173Z,23.11
2018-08-28T01:31:45.650Z,23.29
2018-08-28T01:34:14.145Z,23.18
2018-08-28T01:36:42.863Z,22.83
2018-08-28T01:39:11.500Z,23.05
2018-08-28T01:41:39.982Z,22.98
2018-08-28T01:44:08.655Z,23.18
2018-08-28T01:49:27.666Z,23.37
2018-08-28T01:51:56.056Z,23.56
2018-08-28T01:54:25.155Z,23.48
2018-08-28T01:56:54.127Z,23.34
2018-08-28T01:59:22.543Z,23.34
2018-08-28T02:01:51.013Z,22.97
2018-08-28T02:04:19.377Z,23.24
2018-08-28T02:06:47.745Z,23.24
2018-08-28T02:09:16.130Z,23.19
2018-08-28T02:11:44.533Z,23.30
2018-08-28T02:14:12.894Z,23.44
2018-08-28T02:16:41.442Z,23.48
2018-08-28T02:19:09.938Z,23.43
2018-08-28T02:21:38.327Z,23.39
2018-08-28T02:24:07.098Z,23.40
2018-08-28T02:26:35.733Z,23.25
2018-08-28T02:29:04.191Z,23.19
2018-08-28T02:31:32.563Z,23.14
2018-08-28T02:34:00.976Z,23.04
2018-08-28T02:36:29.397Z,22.95
2018-08-28T02:38:57.776Z,22.95
2018-08-28T02:41:26.204Z,22.87
2018-08-28T02:43:54.634Z,22.83
2018-08-28T02:46:22.985Z,22.78
2018-08-28T02:48:51.520Z,22.63
2018-08-28T02:51:19.903Z,22.64
2018-08-28T02:53:48.265Z,22.57
2018-08-28T02:56:16.799Z,22.73
2018-08-28T02:58:45.170Z,22.71
2018-08-28T03:01:13.703Z,22.64
2018-08-28T03:03:42.224Z,22.47
2018-08-28T03:06:10.867Z,22.59
2018-08-28T03:08:39.202Z,22.91
2018-08-28T03:11:07.621Z,22.75
2018-08-28T03:13:36.097Z,22.94
2018-08-28T03:16:04.482Z,22.68
2018-08-28T03:18:32.874Z,22.65
2018-08-28T03:21:01.217Z,22.51
2018-08-28T03:23:29.578Z,22.44
2018-08-28T03:25:57.958Z,22.41
2018-08-28T03:28:26.357Z,22.52
2018-08-28T03:30:54.683Z,22.25
2018-08-28T03:33:23.060Z,22.24
2018-08-28T03:35:51.680Z,22.11
2018-08-28T03:38:20.066Z,22.23
2018-08-28T03:40:48.744Z,22.22
2018-08-28T03:43:18.200Z,22.35
2018-08-28T03:45:46.736Z,22.55
2018-08-28T03:48:15.321Z,22.62
2018-08-28T03:50:44.426Z,22.72
2018-08-28T03:53:12.796Z,22.79
2018-08-28T03:55:41.206Z,22.79
2018-08-28T03:58:10.060Z,22.81
2018-08-28T04:00:38.599Z,22.55
2018-08-28T04:03:06.992Z,22.73
2018-08-28T04:05:35.352Z,22.73
2018-08-28T04:08:04.336Z,22.46
2018-08-28T04:10:32.827Z,22.25
2018-08-28T04:13:01.247Z,22.16
2018-08-28T04:15:29.680Z,22.21
2018-08-28T04:17:58.094Z,22.12
2018-08-28T04:20:26.449Z,22.08
2018-08-28T04:22:54.822Z,21.92
2018-08-28T04:25:23.200Z,21.89
2018-08-28T04:27:51.847Z,21.82
2018-08-28T04:30:20.255Z,21.94
2018-08-28T04:32:48.610Z,21.82
2018-08-28T04:35:17.030Z,21.88
2018-08-28T04:37:46.543Z,21.95
2018-08-28T04:40:14.923Z,21.84
2018-08-28T04:42:43.435Z,21.92
2018-08-28T04:45:11.965Z,21.90
2018-08-28T04:47:40.316Z,21.90
2018-08-28T04:50:08.769Z,21.96
2018-08-28T04:52:37.264Z,21.90
2018-08-28T04:55:06.173Z,21.99
2018-08-28T04:57:34.616Z,22.21
2018-08-28T05:00:03.076Z,22.23
2018-08-28T05:02:35.229Z,22.24
2018-08-28T05:05:06.069Z,22.13
2018-08-28T05:07:34.769Z,22.32
2018-08-28T05:10:03.679Z,22.37
2018-08-28T05:12:32.094Z,22.34
2018-08-28T05:15:00.782Z,22.39
2018-08-28T05:17:29.167Z,22.36
2018-08-28T05:19:57.597Z,22.34
2018-08-28T05:22:26.523Z,22.56
2018-08-28T05:27:22.614Z,22.42
2018-08-28T05:29:51.199Z,22.63
2018-08-28T05:32:19.569Z,22.64
2018-08-28T05:34:48.098Z,22.71
2018-08-28T05:37:16.527Z,22.68
2018-08-28T05:39:44.946Z,22.78
2018-08-28T05:42:13.324Z,22.71
2018-08-28T05:44:41.728Z,22.59
2018-08-28T05:47:10.686Z,22.58
2018-08-28T05:49:39.136Z,22.64
2018-08-28T05:52:07.502Z,22.72
2018-08-28T05:54:35.820Z,22.74
2018-08-28T05:57:04.230Z,22.91
2018-08-28T05:59:39.259Z,23.02
2018-08-28T06:02:08.256Z,22.98
2018-08-28T06:04:36.832Z,23.06
2018-08-28T06:07:05.187Z,23.24
2018-08-28T06:09:33.758Z,23.22
2018-08-28T06:12:02.219Z,23.28
2018-08-28T06:14:30.597Z,23.57
2018-08-28T06:16:58.955Z,23.56
2018-08-28T06:19:27.355Z,23.71
2018-08-28T06:21:55.728Z,23.55
2018-08-28T06:24:24.078Z,24.00
2018-08-28T06:26:52.484Z,24.01
2018-08-28T06:29:21.070Z,24.17
2018-08-28T06:31:49.520Z,23.99
2018-08-28T06:34:17.959Z,24.00
2018-08-28T06:36:46.314Z,23.65
2018-08-28T06:39:14.711Z,23.65
2018-08-28T06:41:43.065Z,24.16
2018-08-28T06:44:11.589Z,24.55
2018-08-28T06:46:40.043Z,24.41
2018-08-28T06:49:08.471Z,24.31
2018-08-28T06:51:36.871Z,24.48
2018-08-28T06:54:05.302Z,24.55
2018-08-28T06:56:33.690Z,24.76
2018-08-28T06:59:02.355Z,24.71
2018-08-28T07:01:30.698Z,24.61
2018-08-28T07:03:59.160Z,25.03
2018-08-28T07:06:27.530Z,25.25
2018-08-28T07:08:56.141Z,25.52
2018-08-28T07:11:24.465Z,25.76
2018-08-28T07:13:52.909Z,25.79
2018-08-28T07:16:21.831Z,25.58
2018-08-28T07:18:50.279Z,25.61
2018-08-28T07:21:18.529Z,25.61
2018-08-28T07:23:53.584Z,25.75
2018-08-28T07:26:21.949Z,26.01
2018-08-28T07:28:50.256Z,25.72
2018-08-28T07:31:18.706Z,25.98
2018-08-28T07:33:47.060Z,26.17
2018-08-28T07:36:15.505Z,26.06
2018-08-28T07:38:43.912Z,26.16
2018-08-28T07:41:12.299Z,26.17
2018-08-28T07:43:40.749Z,26.39
2018-08-28T07:46:09.184Z,26.25
2018-08-28T07:48:37.538Z,26.74
2018-08-28T07:51:06.021Z,26.52
2018-08-28T07:53:35.109Z,26.46
2018-08-28T07:56:03.484Z,27.11
2018-08-28T07:58:31.893Z,27.38
2018-08-28T08:01:00.452Z,27.40
2018-08-28T08:03:28.981Z,27.21
2018-08-28T08:05:57.456Z,27.59
2018-08-28T08:08:25.802Z,27.25
2018-08-28T08:10:54.811Z,27.52
2018-08-28T08:13:23.322Z,27.59
2018-08-28T08:15:51.722Z,27.91
2018-08-28T08:18:20.771Z,27.91
2018-08-28T08:20:49.172Z,28.05
2018-08-28T08:23:17.728Z,27.80
2018-08-28T08:25:46.117Z,27.42
2018-08-28T08:28:14.717Z,28.12
2018-08-28T08:30:42.969Z,28.40
2018-08-28T08:33:11.371Z,28.26
2018-08-28T08:35:39.878Z,28.61
2018-08-28T08:38:08.296Z,28.61
2018-08-28T08:40:36.725Z,27.83
2018-08-28T08:43:05.180Z,28.36
2018-08-28T08:45:33.587Z,28.45
2018-08-28T08:48:02.134Z,28.48
2018-08-28T08:50:30.647Z,28.68
2018-08-28T08:52:59.039Z,28.54
2018-08-28T08:55:27.427Z,28.41
2018-08-28T08:57:55.839Z,28.83
2018-08-28T09:00:24.313Z,28.61
2018-08-28T09:02:53.934Z,28.57
2018-08-28T09:05:22.354Z,28.94
2018-08-28T09:07:50.763Z,28.18
2018-08-28T09:10:19.277Z,28.19
2018-08-28T09:12:48.246Z,27.92
2018-08-28T09:15:16.900Z,28.71
2018-08-28T09:17:45.276Z,28.43
2018-08-28T09:20:13.623Z,28.70
2018-08-28T09:22:42.071Z,28.70
2018-08-28T09:25:10.581Z,29.25
2018-08-28T09:27:38.958Z,29.06
2018-08-28T09:30:08.233Z,28.59
2018-08-28T09:32:36.587Z,28.50
2018-08-28T09:35:05.334Z,28.73
2018-08-28T09:37:33.736Z,29.26
2018-08-28T09:40:02.329Z,29.52
2018-08-28T09:42:30.732Z,28.65
2018-08-28T09:44:59.161Z,28.91
2018-08-28T09:47:27.820Z,29.49
2018-08-28T09:49:56.235Z,29.74
2018-08-28T09:52:24.566Z,29.66
2018-08-28T09:54:52.923Z,29.65
2018-08-28T09:57:21.311Z,30.00
2018-08-28T09:59:49.883Z,30.34
2018-08-28T10:02:18.763Z,29.95
2018-08-28T10:04:47.213Z,29.94
2018-08-28T10:07:15.715Z,29.26
2018-08-28T10:09:44.125Z,30.19
2018-08-28T10:12:12.706Z,29.49
2018-08-28T10:14:41.170Z,29.55
2018-08-28T10:17:09.539Z,29.99
2018-08-28T10:19:37.865Z,30.39
2018-08-28T10:22:06.391Z,30.50
2018-08-28T10:24:34.845Z,30.70
2018-08-28T10:27:03.233Z,29.68
2018-08-28T10:29:31.664Z,30.15
2018-08-28T10:31:59.994Z,30.13
2018-08-28T10:34:28.387Z,30.04
2018-08-28T10:36:56.776Z,30.60
2018-08-28T10:39:25.316Z,30.91
2018-08-28T10:41:53.680Z,31.42
2018-08-28T10:44:22.205Z,31.52
2018-08-28T10:46:50.958Z,31.37
2018-08-28T10:49:19.123Z,31.52
2018-08-28T10:51:47.531Z,31.55
2018-08-28T10:54:15.873Z,32.07
2018-08-28T10:56:44.292Z,32.09
2018-08-28T10:59:12.926Z,32.35
2018-08-28T11:01:41.290Z,31.97
2018-08-28T11:04:09.660Z,32.01
2018-08-28T11:06:38.064Z,32.04
2018-08-28T11:09:06.848Z,32.37
2018-08-28T11:11:35.231Z,32.19
2018-08-28T11:14:03.633Z,32.20
2018-08-28T11:16:32.045Z,32.32
2018-08-28T11:19:00.838Z,31.93
2018-08-28T11:21:29.277Z,31.76
2018-08-28T11:23:57.698Z,32.06
2018-08-28T11:26:26.098Z,31.94
2018-08-28T11:28:54.455Z,32.47
2018-08-28T11:31:22.881Z,32.33
2018-08-28T11:33:51.288Z,33.22
2018-08-28T11:36:19.722Z,32.21
2018-08-28T11:38:48.171Z,32.19
2018-08-28T11:41:16.539Z,32.42
2018-08-28T11:43:44.903Z,33.62
2018-08-28T11:46:13.296Z,33.19
2018-08-28T11:48:41.923Z,34.20
2018-08-28T11:51:10.325Z,34.79
2018-08-28T11:53:38.741Z,35.11
2018-08-28T11:56:07.192Z,36.21
2018-08-28T11:58:35.628Z,36.81
2018-08-28T12:01:03.986Z,37.59
2018-08-28T12:03:32.563Z,38.13
2018-08-28T12:06:01.188Z,39.27
2018-08-28T12:08:29.896Z,37.08
2018-08-28T12:10:58.337Z,37.84
2018-08-28T12:13:26.876Z,37.53
2018-08-28T12:15:55.359Z,38.51
2018-08-28T12:18:23.814Z,40.52
2018-08-28T12:20:52.341Z,40.34
2018-08-28T12:23:20.599Z,38.91
2018-08-28T12:25:49.062Z,41.77
2018-08-28T12:28:17.443Z,42.07
2018-08-28T12:30:45.861Z,41.58
2018-08-28T12:33:14.312Z,41.65
2018-08-28T12:35:42.715Z,42.19
2018-08-28T12:38:11.066Z,42.00
2018-08-28T12:40:39.503Z,44.60
2018-08-28T12:43:08.001Z,46.57
2018-08-28T12:45:36.468Z,47.38
2018-08-28T12:48:04.983Z,46.63
2018-08-28T12:50:33.869Z,44.97
2018-08-28T12:53:02.217Z,43.07
2018-08-28T12:55:30.603Z,41.35
2018-08-28T12:57:59.544Z,42.78
2018-08-28T13:00:28.000Z,45.56
2018-08-28T13:02:56.248Z,44.24
2018-08-28T13:05:24.652Z,44.98
2018-08-28T13:07:53.017Z,44.22
2018-08-28T13:10:21.510Z,43.82
2018-08-28T13:12:49.864Z,47.01
2018-08-28T13:15:18.274Z,47.06
2018-08-28T13:17:47.384Z,45.30
2018-08-28T13:20:15.792Z,45.24
2018-08-28T13:22:44.195Z,47.93
2018-08-28T13:25:12.650Z,48.94
2018-08-28T13:27:40.974Z,47.74
2018-08-28T13:30:09.386Z,47.79
2018-08-28T13:32:37.953Z,49.04
2018-08-28T13:35:06.364Z,49.07
2018-08-28T13:37:34.753Z,47.71
2018-08-28T13:40:03.142Z,47.92
2018-08-28T13:42:31.453Z,49.39
2018-08-28T13:44:59.841Z,50.39
2018-08-28T13:47:28.791Z,50.36
2018-08-28T13:49:57.271Z,50.07
2018-08-28T13:52:25.599Z,49.72
2018-08-28T13:55:00.802Z,50.08
2018-08-28T13:57:29.256Z,48.44
2018-08-28T13:59:57.731Z,46.84
2018-08-28T14:02:26.112Z,46.93
2018-08-28T14:04:54.423Z,49.49
2018-08-28T14:07:23.653Z,49.42
2018-08-28T14:09:52.088Z,48.91
2018-08-28T14:12:20.444Z,50.01
2018-08-28T14:14:48.932Z,50.90
2018-08-28T14:17:17.143Z,49.78
2018-08-28T14:19:45.613Z,50.15
2018-08-28T14:22:14.153Z,51.12
2018-08-28T14:24:42.553Z,51.05
2018-08-28T14:27:10.959Z,46.20
2018-08-28T14:29:39.411Z,45.98
2018-08-28T14:32:08.047Z,45.96
2018-08-28T14:34:36.387Z,48.27
2018-08-28T14:37:04.868Z,48.57
2018-08-28T14:39:33.331Z,48.34
2018-08-28T14:42:01.737Z,47.18
2018-08-28T14:44:30.300Z,45.28
2018-08-28T14:46:58.674Z,47.07
2018-08-28T14:49:27.101Z,49.26
2018-08-28T14:51:56.052Z,47.56
2018-08-28T14:54:24.956Z,48.56
2018-08-28T14:56:53.433Z,49.20
2018-08-28T14:59:22.603Z,49.32
2018-08-28T15:01:51.046Z,49.74
2018-08-28T15:04:19.413Z,50.17
2018-08-28T15:06:47.991Z,49.92
2018-08-28T15:09:16.318Z,49.82
2018-08-28T15:11:44.708Z,50.18
2018-08-28T15:14:13.725Z,49.75
2018-08-28T15:16:42.279Z,48.15
2018-08-28T15:19:10.957Z,47.98
2018-08-28T15:21:39.386Z,49.01
2018-08-28T15:24:08.045Z,49.17
2018-08-28T15:26:36.515Z,47.99
2018-08-28T15:29:04.948Z,48.21
2018-08-28T15:31:33.327Z,46.58
2018-08-28T15:34:01.833Z,47.81
2018-08-28T15:36:30.387Z,48.16
2018-08-28T15:38:58.752Z,48.06
2018-08-28T15:41:27.426Z,47.88
2018-08-28T15:43:55.850Z,47.42
2018-08-28T15:46:24.465Z,47.37
2018-08-28T15:48:53.028Z,47.27
2018-08-28T15:51:22.437Z,47.48
2018-08-28T15:53:50.766Z,47.84
2018-08-28T15:56:19.890Z,47.16
2018-08-28T15:58:49.227Z,47.50
2018-08-28T16:01:17.885Z,46.87
2018-08-28T16:03:46.249Z,47.33
2018-08-28T16:06:14.619Z,46.67
2018-08-28T16:08:43.027Z,46.04
2018-08-28T16:11:11.621Z,45.86
2018-08-28T16:13:40.043Z,45.84
2018-08-28T16:16:09.261Z,45.21
2018-08-28T16:18:37.933Z,45.48
2018-08-28T16:21:06.385Z,45.31
2018-08-28T16:23:39.619Z,44.77
2018-08-28T16:26:08.218Z,44.68
2018-08-28T16:28:37.002Z,44.58
2018-08-28T16:31:05.682Z,44.48
2018-08-28T16:33:34.105Z,44.47
2018-08-28T16:36:02.453Z,44.30
2018-08-28T16:38:30.893Z,43.83
2018-08-28T16:40:59.311Z,43.36
2018-08-28T16:43:27.610Z,43.40
2018-08-28T16:45:55.951Z,43.50
2018-08-28T16:48:24.345Z,43.05
2018-08-28T16:50:52.702Z,43.02
2018-08-28T16:53:21.896Z,42.50
2018-08-28T16:55:50.329Z,42.17
2018-08-28T16:58:18.691Z,41.82
2018-08-28T17:00:47.050Z,40.75
2018-08-28T17:03:15.946Z,40.83
2018-08-28T17:05:44.368Z,39.97
2018-08-28T17:08:12.745Z,38.38
2018-08-28T17:10:41.111Z,37.57
2018-08-28T17:13:09.461Z,36.38
2018-08-28T17:15:37.965Z,35.65
2018-08-28T17:18:06.321Z,35.22
2018-08-28T17:20:34.682Z,34.56
2018-08-28T17:23:03.097Z,34.31
2018-08-28T17:25:31.483Z,33.75
2018-08-28T17:28:02.210Z,33.78
2018-08-28T17:30:30.584Z,33.63
2018-08-28T17:32:58.991Z,33.38
2018-08-28T17:35:27.547Z,33.11
2018-08-28T17:37:56.123Z,32.81
2018-08-28T17:40:24.598Z,32.55
2018-08-28T17:42:53.128Z,32.33
2018-08-28T17:45:21.591Z,31.93
2018-08-28T17:47:49.968Z,31.69
2018-08-28T17:50:18.468Z,31.34
2018-08-28T17:52:47.341Z,31.13
2018-08-28T17:55:22.065Z,30.86
2018-08-28T17:57:50.528Z,30.53
2018-08-28T18:00:18.982Z,30.34
2018-08-28T18:02:47.664Z,30.13
2018-08-28T18:05:16.046Z,29.88
2018-08-28T18:07:44.491Z,29.76
2018-08-28T18:10:12.958Z,29.55
2018-08-28T18:12:41.994Z,29.43
2018-08-28T18:15:10.464Z,29.23
2018-08-28T18:17:38.864Z,28.98
2018-08-28T18:20:07.308Z,28.94
2018-08-28T18:22:36.882Z,28.63
2018-08-28T18:25:05.898Z,28.58
2018-08-28T18:27:35.012Z,28.53
2018-08-28T18:30:04.482Z,28.47
2018-08-28T18:32:32.975Z,28.30
2018-08-28T18:35:01.548Z,28.25
2018-08-28T18:37:30.247Z,28.11
2018-08-28T18:39:59.799Z,28.06
2018-08-28T18:42:28.974Z,28.00
2018-08-28T18:44:57.905Z,27.87
2018-08-28T18:47:26.544Z,27.76
2018-08-28T18:49:55.581Z,27.66
2018-08-28T18:52:24.326Z,27.61
2018-08-28T18:54:52.741Z,27.56
2018-08-28T18:57:21.277Z,27.50
2018-08-28T18:59:49.847Z,27.44
2018-08-28T19:02:18.457Z,27.35
2018-08-28T19:04:46.975Z,27.32
2018-08-28T19:07:15.744Z,27.26
2018-08-28T19:09:44.467Z,27.19
2018-08-28T19:12:13.652Z,27.22
2018-08-28T19:14:42.400Z,27.04
2018-08-28T19:17:11.099Z,26.95
2018-08-28T19:19:39.460Z,26.81
2018-08-28T19:22:08.431Z,26.75
2018-08-28T19:24:36.949Z,26.85
2018-08-28T19:27:10.439Z,26.87
2018-08-28T19:29:38.833Z,26.82
2018-08-28T19:32:07.438Z,26.86
2018-08-28T19:34:36.048Z,26.79
2018-08-28T19:37:04.424Z,26.71
2018-08-28T19:39:32.822Z,26.61
2018-08-28T19:42:01.517Z,26.57
2018-08-28T19:44:30.014Z,26.49
2018-08-28T19:46:59.229Z,26.53
2018-08-28T19:49:27.609Z,26.46
2018-08-28T19:51:55.972Z,26.37
2018-08-28T19:54:24.386Z,26.29
2018-08-28T19:56:53.742Z,26.24
2018-08-28T19:59:22.098Z,26.32
2018-08-28T20:01:50.479Z,26.33
2018-08-28T20:04:18.837Z,26.34
2018-08-28T20:06:47.275Z,26.35
2018-08-28T20:09:15.695Z,26.45
2018-08-28T20:11:44.158Z,26.41
2018-08-28T20:14:12.573Z,26.50
2018-08-28T20:16:40.983Z,26.46
2018-08-28T20:19:09.373Z,26.40
2018-08-28T20:21:37.804Z,26.34
2018-08-28T20:24:06.334Z,26.40
2018-08-28T20:26:34.785Z,26.28
2018-08-28T20:29:03.177Z,26.25
2018-08-28T20:31:31.621Z,26.16
2018-08-28T20:34:00.142Z,26.06
2018-08-28T20:36:28.706Z,26.06
2018-08-28T20:38:57.053Z,25.91
2018-08-28T20:41:25.450Z,25.91
2018-08-28T20:43:53.832Z,25.94
2018-08-28T20:46:22.237Z,25.83
2018-08-28T20:48:50.670Z,25.84
2018-08-28T20:51:19.036Z,25.72
2018-08-28T20:53:47.478Z,25.74
2018-08-28T20:56:15.910Z,25.62
2018-08-28T20:58:44.334Z,25.71
2018-08-28T21:01:15.791Z,25.72
2018-08-28T21:03:44.174Z,25.79
2018-08-28T21:06:12.532Z,25.69
2018-08-28T21:08:40.909Z,25.61
2018-08-28T21:11:09.430Z,25.54
2018-08-28T21:13:37.988Z,25.54
2018-08-28T21:16:06.671Z,25.50
2018-08-28T21:18:35.148Z,25.51
2018-08-28T21:21:03.479Z,25.45
2018-08-28T21:23:31.820Z,25.36
2018-08-28T21:26:00.269Z,25.30
2018-08-28T21:28:28.649Z,25.32
2018-08-28T21:30:57.012Z,25.40
2018-08-28T21:33:25.413Z,25.37
2018-08-28T21:35:53.753Z,25.37
2018-08-28T21:38:22.158Z,25.37
2018-08-28T21:40:50.540Z,25.28
2018-08-28T21:43:18.924Z,25.21
2018-08-28T21:45:47.281Z,25.31
2018-08-28T21:48:16.523Z,25.22
2018-08-28T21:50:44.826Z,25.17
2018-08-28T21:53:13.252Z,25.25
2018-08-28T21:55:41.769Z,25.26
2018-08-28T21:58:10.180Z,25.21
2018-08-28T22:00:38.686Z,25.32
2018-08-28T22:03:07.008Z,25.27
2018-08-28T22:05:35.393Z,25.18
2018-08-28T22:08:05.046Z,25.20
2018-08-28T22:10:33.728Z,25.24
2018-08-28T22:13:02.174Z,25.15
2018-08-28T22:15:30.617Z,25.04
2018-08-28T22:17:59.003Z,24.94
2018-08-28T22:20:27.486Z,24.78
2018-08-28T22:22:55.829Z,24.73
2018-08-28T22:25:24.187Z,24.84
2018-08-28T22:27:52.560Z,24.59
2018-08-28T22:30:20.931Z,24.64
2018-08-28T22:32:49.417Z,24.59
2018-08-28T22:35:17.729Z,24.58
2018-08-28T22:37:46.153Z,24.49
2018-08-28T22:40:14.481Z,24.52
2018-08-28T22:42:42.861Z,24.42
2018-08-28T22:45:11.298Z,24.51
2018-08-28T22:47:39.713Z,24.47
2018-08-28T22:50:08.056Z,24.43
2018-08-28T22:52:36.463Z,24.39
2018-08-28T22:55:04.912Z,24.51
2018-08-28T22:57:33.387Z,24.50
2018-08-28T23:00:01.715Z,24.48
2018-08-28T23:02:30.140Z,24.29
2018-08-28T23:04:58.683Z,24.49
2018-08-28T23:07:27.232Z,24.30
2018-08-28T23:09:56.522Z,24.23
2018-08-28T23:12:24.924Z,24.20
2018-08-28T23:14:53.324Z,24.04
2018-08-28T23:17:21.720Z,24.13
2018-08-28T23:19:50.157Z,24.23
2018-08-28T23:22:18.774Z,24.23
2018-08-28T23:24:47.303Z,24.00
2018-08-28T23:27:16.177Z,24.08
2018-08-28T23:29:44.677Z,24.16
2018-08-28T23:32:13.145Z,24.21
2018-08-28T23:34:41.614Z,23.99
2018-08-28T23:37:09.998Z,24.02
2018-08-28T23:39:38.665Z,24.00
2018-08-28T23:42:07.012Z,24.03
2018-08-28T23:44:35.430Z,23.82
2018-08-28T23:47:03.854Z,23.93
2018-08-28T23:49:32.393Z,23.81
2018-08-28T23:52:01.631Z,23.68
2018-08-28T23:54:30.117Z,23.62
2018-08-28T23:56:58.569Z,23.59
2018-08-28T23:59:27.051Z,23.62
